sensor_id;sensor_type;location;lat;lon;timestamp;P1;durP1;ratioP1;P2;durP2;ratioP2
37201;SDS011;37799;52.390;6.136;2022-12-05T00:01:10;19.10;;;4.90;;
37201;SDS011;37799;52.390;6.136;2022-12-05T00:03:45;14.93;;;4.70;;
37201;SDS011;37799;52.390;6.136;2022-12-05T00:06:12;14.45;;;3.90;;
37201;SDS011;37799;52.390;6.136;2022-12-05T00:08:37;14.57;;;4.32;;
37201;SDS011;37799;52.390;6.136;2022-12-05T00:11:03;13.38;;;3.75;;
37201;SDS011;37799;52.390;6.136;2022-12-05T00:13:28;14.02;;;3.88;;
37201;SDS011;37799;52.390;6.136;2022-12-05T00:15:54;12.48;;;3.70;;
37201;SDS011;37799;52.390;6.136;2022-12-05T00:18:19;15.25;;;3.65;;
37201;SDS011;37799;52.390;6.136;2022-12-05T00:20:45;8.82;;;2.17;;
37201;SDS011;37799;52.390;6.136;2022-12-05T00:23:11;16.50;;;4.00;;
37201;SDS011;37799;52.390;6.136;2022-12-05T00:25:36;16.42;;;4.20;;
37201;SDS011;37799;52.390;6.136;2022-12-05T00:28:02;13.95;;;4.82;;
37201;SDS011;37799;52.390;6.136;2022-12-05T00:30:27;14.95;;;4.10;;
37201;SDS011;37799;52.390;6.136;2022-12-05T00:32:52;14.35;;;3.67;;
37201;SDS011;37799;52.390;6.136;2022-12-05T00:35:18;16.13;;;4.32;;
37201;SDS011;37799;52.390;6.136;2022-12-05T00:37:43;13.40;;;3.60;;
37201;SDS011;37799;52.390;6.136;2022-12-05T00:40:09;18.00;;;4.07;;
37201;SDS011;37799;52.390;6.136;2022-12-05T00:42:34;14.35;;;5.03;;
37201;SDS011;37799;52.390;6.136;2022-12-05T00:45:00;13.90;;;4.05;;
37201;SDS011;37799;52.390;6.136;2022-12-05T00:47:25;11.25;;;3.60;;
37201;SDS011;37799;52.390;6.136;2022-12-05T00:49:50;14.45;;;3.70;;
37201;SDS011;37799;52.390;6.136;2022-12-05T00:52:16;14.45;;;4.30;;
37201;SDS011;37799;52.390;6.136;2022-12-05T00:54:41;15.57;;;3.85;;
37201;SDS011;37799;52.390;6.136;2022-12-05T00:57:07;14.00;;;3.95;;
37201;SDS011;37799;52.390;6.136;2022-12-05T00:59:32;14.13;;;3.22;;
37201;SDS011;37799;52.390;6.136;2022-12-05T01:01:57;15.88;;;4.20;;
37201;SDS011;37799;52.390;6.136;2022-12-05T01:04:23;14.77;;;3.25;;
37201;SDS011;37799;52.390;6.136;2022-12-05T01:06:52;15.05;;;3.97;;
37201;SDS011;37799;52.390;6.136;2022-12-05T01:09:19;17.17;;;4.10;;
37201;SDS011;37799;52.390;6.136;2022-12-05T01:11:44;11.48;;;3.78;;
37201;SDS011;37799;52.390;6.136;2022-12-05T01:14:12;16.23;;;4.43;;
37201;SDS011;37799;52.390;6.136;2022-12-05T01:16:39;14.27;;;3.92;;
37201;SDS011;37799;52.390;6.136;2022-12-05T01:19:07;10.70;;;3.60;;
37201;SDS011;37799;52.390;6.136;2022-12-05T01:21:36;16.08;;;3.88;;
37201;SDS011;37799;52.390;6.136;2022-12-05T01:24:02;13.98;;;3.90;;
37201;SDS011;37799;52.390;6.136;2022-12-05T01:26:27;14.32;;;4.82;;
37201;SDS011;37799;52.390;6.136;2022-12-05T01:28:52;13.52;;;3.83;;
37201;SDS011;37799;52.390;6.136;2022-12-05T01:31:25;20.42;;;4.93;;
37201;SDS011;37799;52.390;6.136;2022-12-05T01:33:51;17.85;;;4.75;;
37201;SDS011;37799;52.390;6.136;2022-12-05T01:36:18;12.75;;;3.25;;
37201;SDS011;37799;52.390;6.136;2022-12-05T01:38:43;14.55;;;3.88;;
37201;SDS011;37799;52.390;6.136;2022-12-05T01:41:14;13.73;;;3.10;;
37201;SDS011;37799;52.390;6.136;2022-12-05T01:46:30;14.88;;;3.60;;
37201;SDS011;37799;52.390;6.136;2022-12-05T01:49:00;13.88;;;3.50;;
37201;SDS011;37799;52.390;6.136;2022-12-05T01:51:33;15.18;;;3.97;;
37201;SDS011;37799;52.390;6.136;2022-12-05T01:54:01;13.68;;;3.20;;
37201;SDS011;37799;52.390;6.136;2022-12-05T01:56:28;13.70;;;3.60;;
37201;SDS011;37799;52.390;6.136;2022-12-05T01:58:56;14.20;;;4.03;;
37201;SDS011;37799;52.390;6.136;2022-12-05T02:01:23;17.23;;;4.65;;
37201;SDS011;37799;52.390;6.136;2022-12-05T02:03:49;10.30;;;3.67;;
37201;SDS011;37799;52.390;6.136;2022-12-05T02:06:20;12.75;;;3.85;;
37201;SDS011;37799;52.390;6.136;2022-12-05T02:08:46;16.13;;;4.00;;
37201;SDS011;37799;52.390;6.136;2022-12-05T02:11:12;12.98;;;3.83;;
37201;SDS011;37799;52.390;6.136;2022-12-05T02:13:42;13.85;;;4.32;;
37201;SDS011;37799;52.390;6.136;2022-12-05T02:16:25;13.10;;;4.00;;
37201;SDS011;37799;52.390;6.136;2022-12-05T02:27:40;13.75;;;3.72;;
37201;SDS011;37799;52.390;6.136;2022-12-05T02:30:21;12.18;;;3.78;;
37201;SDS011;37799;52.390;6.136;2022-12-05T02:39:03;13.45;;;3.10;;
37201;SDS011;37799;52.390;6.136;2022-12-05T02:44:44;13.23;;;3.10;;
37201;SDS011;37799;52.390;6.136;2022-12-05T02:47:14;12.20;;;3.65;;
37201;SDS011;37799;52.390;6.136;2022-12-05T02:49:43;14.88;;;3.70;;
37201;SDS011;37799;52.390;6.136;2022-12-05T02:52:09;12.85;;;3.35;;
37201;SDS011;37799;52.390;6.136;2022-12-05T02:54:38;12.48;;;3.58;;
37201;SDS011;37799;52.390;6.136;2022-12-05T02:57:07;14.27;;;3.33;;
37201;SDS011;37799;52.390;6.136;2022-12-05T02:59:34;12.80;;;3.50;;
37201;SDS011;37799;52.390;6.136;2022-12-05T03:01:59;10.05;;;3.03;;
37201;SDS011;37799;52.390;6.136;2022-12-05T03:04:25;14.50;;;4.00;;
37201;SDS011;37799;52.390;6.136;2022-12-05T03:06:54;17.27;;;3.58;;
37201;SDS011;37799;52.390;6.136;2022-12-05T03:09:25;13.95;;;3.95;;
37201;SDS011;37799;52.390;6.136;2022-12-05T03:12:11;14.10;;;3.75;;
37201;SDS011;37799;52.390;6.136;2022-12-05T03:14:48;12.27;;;3.43;;
37201;SDS011;37799;52.390;6.136;2022-12-05T03:17:21;12.48;;;3.15;;
37201;SDS011;37799;52.390;6.136;2022-12-05T03:19:56;14.98;;;3.83;;
37201;SDS011;37799;52.390;6.136;2022-12-05T03:22:43;19.33;;;5.03;;
37201;SDS011;37799;52.390;6.136;2022-12-05T03:25:13;10.52;;;3.25;;
37201;SDS011;37799;52.390;6.136;2022-12-05T03:27:48;11.20;;;3.38;;
37201;SDS011;37799;52.390;6.136;2022-12-05T03:30:17;14.63;;;3.42;;
37201;SDS011;37799;52.390;6.136;2022-12-05T03:33:04;14.52;;;3.95;;
37201;SDS011;37799;52.390;6.136;2022-12-05T03:35:36;16.30;;;4.03;;
37201;SDS011;37799;52.390;6.136;2022-12-05T03:38:07;17.13;;;4.25;;
37201;SDS011;37799;52.390;6.136;2022-12-05T03:41:23;13.32;;;4.10;;
37201;SDS011;37799;52.390;6.136;2022-12-05T03:46:20;9.97;;;2.97;;
37201;SDS011;37799;52.390;6.136;2022-12-05T03:51:43;15.00;;;3.83;;
37201;SDS011;37799;52.390;6.136;2022-12-05T03:54:17;14.35;;;3.50;;
37201;SDS011;37799;52.390;6.136;2022-12-05T03:56:53;15.15;;;4.20;;
37201;SDS011;37799;52.390;6.136;2022-12-05T03:59:33;20.20;;;4.63;;
37201;SDS011;37799;52.390;6.136;2022-12-05T04:02:07;12.27;;;3.85;;
37201;SDS011;37799;52.390;6.136;2022-12-05T04:04:45;14.27;;;3.88;;
37201;SDS011;37799;52.390;6.136;2022-12-05T04:07:17;18.17;;;4.80;;
37201;SDS011;37799;52.390;6.136;2022-12-05T04:09:46;12.95;;;4.07;;
37201;SDS011;37799;52.390;6.136;2022-12-05T04:12:22;12.77;;;4.00;;
37201;SDS011;37799;52.390;6.136;2022-12-05T04:14:52;15.35;;;3.80;;
37201;SDS011;37799;52.390;6.136;2022-12-05T04:17:37;17.80;;;4.70;;
37201;SDS011;37799;52.390;6.136;2022-12-05T04:20:13;16.88;;;4.40;;
37201;SDS011;37799;52.390;6.136;2022-12-05T04:23:01;11.52;;;3.38;;
37201;SDS011;37799;52.390;6.136;2022-12-05T04:25:30;11.95;;;2.88;;
37201;SDS011;37799;52.390;6.136;2022-12-05T04:31:10;12.93;;;3.55;;
37201;SDS011;37799;52.390;6.136;2022-12-05T04:36:34;11.55;;;3.67;;
37201;SDS011;37799;52.390;6.136;2022-12-05T04:39:06;14.88;;;3.70;;
37201;SDS011;37799;52.390;6.136;2022-12-05T04:41:36;14.55;;;4.38;;
37201;SDS011;37799;52.390;6.136;2022-12-05T04:44:06;16.05;;;3.92;;
37201;SDS011;37799;52.390;6.136;2022-12-05T04:46:35;10.85;;;3.67;;
37201;SDS011;37799;52.390;6.136;2022-12-05T04:49:05;13.52;;;3.80;;
37201;SDS011;37799;52.390;6.136;2022-12-05T04:51:33;15.68;;;4.95;;
37201;SDS011;37799;52.390;6.136;2022-12-05T04:54:03;15.27;;;4.32;;
37201;SDS011;37799;52.390;6.136;2022-12-05T04:56:38;13.77;;;3.83;;
37201;SDS011;37799;52.390;6.136;2022-12-05T04:59:07;18.02;;;4.25;;
37201;SDS011;37799;52.390;6.136;2022-12-05T05:01:33;11.90;;;2.95;;
37201;SDS011;37799;52.390;6.136;2022-12-05T05:04:08;13.18;;;3.60;;
37201;SDS011;37799;52.390;6.136;2022-12-05T05:06:38;15.23;;;4.00;;
37201;SDS011;37799;52.390;6.136;2022-12-05T05:09:05;16.85;;;4.53;;
37201;SDS011;37799;52.390;6.136;2022-12-05T05:11:31;14.50;;;3.90;;
37201;SDS011;37799;52.390;6.136;2022-12-05T05:13:58;13.38;;;3.95;;
37201;SDS011;37799;52.390;6.136;2022-12-05T05:16:25;12.73;;;3.80;;
37201;SDS011;37799;52.390;6.136;2022-12-05T05:18:52;13.10;;;3.88;;
37201;SDS011;37799;52.390;6.136;2022-12-05T05:21:19;14.60;;;3.65;;
37201;SDS011;37799;52.390;6.136;2022-12-05T05:23:55;11.05;;;4.32;;
37201;SDS011;37799;52.390;6.136;2022-12-05T05:26:21;13.55;;;3.97;;
37201;SDS011;37799;52.390;6.136;2022-12-05T05:28:48;16.15;;;4.32;;
37201;SDS011;37799;52.390;6.136;2022-12-05T05:31:14;15.88;;;4.50;;
37201;SDS011;37799;52.390;6.136;2022-12-05T05:33:40;14.32;;;4.00;;
37201;SDS011;37799;52.390;6.136;2022-12-05T05:36:07;14.82;;;3.63;;
37201;SDS011;37799;52.390;6.136;2022-12-05T05:38:35;11.52;;;3.75;;
37201;SDS011;37799;52.390;6.136;2022-12-05T05:41:01;11.20;;;3.72;;
37201;SDS011;37799;52.390;6.136;2022-12-05T05:43:27;14.05;;;4.10;;
37201;SDS011;37799;52.390;6.136;2022-12-05T05:45:52;12.15;;;3.78;;
37201;SDS011;37799;52.390;6.136;2022-12-05T05:48:18;18.65;;;4.25;;
37201;SDS011;37799;52.390;6.136;2022-12-05T05:50:43;16.40;;;4.50;;
37201;SDS011;37799;52.390;6.136;2022-12-05T05:53:08;11.60;;;4.22;;
37201;SDS011;37799;52.390;6.136;2022-12-05T05:55:34;12.98;;;3.30;;
37201;SDS011;37799;52.390;6.136;2022-12-05T05:57:59;15.90;;;3.78;;
37201;SDS011;37799;52.390;6.136;2022-12-05T06:00:24;12.30;;;3.42;;
37201;SDS011;37799;52.390;6.136;2022-12-05T06:02:49;13.02;;;2.83;;
37201;SDS011;37799;52.390;6.136;2022-12-05T06:05:15;12.95;;;3.72;;
37201;SDS011;37799;52.390;6.136;2022-12-05T06:07:40;14.60;;;3.58;;
37201;SDS011;37799;52.390;6.136;2022-12-05T06:10:05;14.75;;;3.85;;
37201;SDS011;37799;52.390;6.136;2022-12-05T06:12:31;14.93;;;4.18;;
37201;SDS011;37799;52.390;6.136;2022-12-05T06:14:56;12.70;;;3.17;;
37201;SDS011;37799;52.390;6.136;2022-12-05T06:17:21;11.48;;;3.90;;
37201;SDS011;37799;52.390;6.136;2022-12-05T06:19:47;11.68;;;3.47;;
37201;SDS011;37799;52.390;6.136;2022-12-05T06:22:12;14.77;;;4.10;;
37201;SDS011;37799;52.390;6.136;2022-12-05T06:24:37;13.43;;;3.42;;
37201;SDS011;37799;52.390;6.136;2022-12-05T06:27:03;15.10;;;3.88;;
37201;SDS011;37799;52.390;6.136;2022-12-05T06:29:28;13.20;;;3.83;;
37201;SDS011;37799;52.390;6.136;2022-12-05T06:31:54;13.88;;;4.28;;
37201;SDS011;37799;52.390;6.136;2022-12-05T06:34:19;12.90;;;3.35;;
37201;SDS011;37799;52.390;6.136;2022-12-05T06:36:44;12.75;;;4.10;;
37201;SDS011;37799;52.390;6.136;2022-12-05T06:39:10;14.45;;;4.57;;
37201;SDS011;37799;52.390;6.136;2022-12-05T06:41:35;10.70;;;3.20;;
37201;SDS011;37799;52.390;6.136;2022-12-05T06:44:00;14.20;;;4.20;;
37201;SDS011;37799;52.390;6.136;2022-12-05T06:46:25;17.08;;;4.00;;
37201;SDS011;37799;52.390;6.136;2022-12-05T06:48:52;10.05;;;3.42;;
37201;SDS011;37799;52.390;6.136;2022-12-05T06:51:18;16.00;;;4.30;;
37201;SDS011;37799;52.390;6.136;2022-12-05T06:53:44;15.02;;;4.07;;
37201;SDS011;37799;52.390;6.136;2022-12-05T06:56:10;15.07;;;4.47;;
37201;SDS011;37799;52.390;6.136;2022-12-05T06:58:41;14.00;;;3.65;;
37201;SDS011;37799;52.390;6.136;2022-12-05T07:01:09;12.82;;;3.75;;
37201;SDS011;37799;52.390;6.136;2022-12-05T07:03:54;11.90;;;3.40;;
37201;SDS011;37799;52.390;6.136;2022-12-05T07:06:20;14.43;;;4.47;;
37201;SDS011;37799;52.390;6.136;2022-12-05T07:08:45;12.23;;;2.83;;
37201;SDS011;37799;52.390;6.136;2022-12-05T07:11:11;14.65;;;3.35;;
37201;SDS011;37799;52.390;6.136;2022-12-05T07:13:36;16.20;;;4.00;;
37201;SDS011;37799;52.390;6.136;2022-12-05T07:16:01;15.80;;;3.78;;
37201;SDS011;37799;52.390;6.136;2022-12-05T07:18:28;15.43;;;3.75;;
37201;SDS011;37799;52.390;6.136;2022-12-05T07:20:57;14.63;;;3.20;;
37201;SDS011;37799;52.390;6.136;2022-12-05T07:23:23;13.73;;;3.53;;
37201;SDS011;37799;52.390;6.136;2022-12-05T07:25:49;13.07;;;3.88;;
37201;SDS011;37799;52.390;6.136;2022-12-05T07:28:14;10.85;;;3.05;;
37201;SDS011;37799;52.390;6.136;2022-12-05T07:30:39;10.68;;;3.25;;
37201;SDS011;37799;52.390;6.136;2022-12-05T07:33:04;10.75;;;3.35;;
37201;SDS011;37799;52.390;6.136;2022-12-05T07:35:30;10.27;;;2.85;;
37201;SDS011;37799;52.390;6.136;2022-12-05T07:37:55;10.18;;;3.20;;
37201;SDS011;37799;52.390;6.136;2022-12-05T07:40:20;8.52;;;2.70;;
37201;SDS011;37799;52.390;6.136;2022-12-05T07:42:49;10.45;;;3.10;;
37201;SDS011;37799;52.390;6.136;2022-12-05T07:45:15;10.73;;;2.65;;
37201;SDS011;37799;52.390;6.136;2022-12-05T07:47:40;9.10;;;2.53;;
37201;SDS011;37799;52.390;6.136;2022-12-05T07:50:06;9.40;;;2.38;;
37201;SDS011;37799;52.390;6.136;2022-12-05T07:52:31;8.02;;;2.65;;
37201;SDS011;37799;52.390;6.136;2022-12-05T07:54:57;11.32;;;2.85;;
37201;SDS011;37799;52.390;6.136;2022-12-05T07:57:22;12.00;;;3.40;;
37201;SDS011;37799;52.390;6.136;2022-12-05T07:59:47;11.93;;;2.85;;
37201;SDS011;37799;52.390;6.136;2022-12-05T08:02:13;11.45;;;3.15;;
37201;SDS011;37799;52.390;6.136;2022-12-05T08:04:38;9.77;;;2.67;;
37201;SDS011;37799;52.390;6.136;2022-12-05T08:07:03;8.05;;;2.40;;
37201;SDS011;37799;52.390;6.136;2022-12-05T08:09:29;10.00;;;3.13;;
37201;SDS011;37799;52.390;6.136;2022-12-05T08:11:54;8.38;;;3.08;;
37201;SDS011;37799;52.390;6.136;2022-12-05T08:14:19;9.32;;;2.58;;
37201;SDS011;37799;52.390;6.136;2022-12-05T08:16:44;11.25;;;3.33;;
37201;SDS011;37799;52.390;6.136;2022-12-05T08:19:10;12.90;;;2.90;;
37201;SDS011;37799;52.390;6.136;2022-12-05T08:21:41;10.80;;;2.92;;
37201;SDS011;37799;52.390;6.136;2022-12-05T08:24:06;7.07;;;2.17;;
37201;SDS011;37799;52.390;6.136;2022-12-05T08:26:32;9.98;;;3.00;;
37201;SDS011;37799;52.390;6.136;2022-12-05T08:29:04;11.63;;;3.15;;
37201;SDS011;37799;52.390;6.136;2022-12-05T08:31:31;7.93;;;2.42;;
37201;SDS011;37799;52.390;6.136;2022-12-05T08:33:59;7.78;;;2.22;;
37201;SDS011;37799;52.390;6.136;2022-12-05T08:36:25;9.15;;;3.03;;
37201;SDS011;37799;52.390;6.136;2022-12-05T08:38:54;7.53;;;2.15;;
37201;SDS011;37799;52.390;6.136;2022-12-05T08:41:21;8.85;;;2.47;;
37201;SDS011;37799;52.390;6.136;2022-12-05T08:43:47;9.05;;;2.33;;
37201;SDS011;37799;52.390;6.136;2022-12-05T08:46:13;7.57;;;2.17;;
37201;SDS011;37799;52.390;6.136;2022-12-05T08:48:38;9.05;;;2.38;;
37201;SDS011;37799;52.390;6.136;2022-12-05T08:51:08;6.75;;;2.00;;
37201;SDS011;37799;52.390;6.136;2022-12-05T08:53:35;8.68;;;2.13;;
37201;SDS011;37799;52.390;6.136;2022-12-05T08:56:02;6.10;;;1.85;;
37201;SDS011;37799;52.390;6.136;2022-12-05T08:58:29;7.35;;;2.60;;
37201;SDS011;37799;52.390;6.136;2022-12-05T09:01:01;7.47;;;2.30;;
37201;SDS011;37799;52.390;6.136;2022-12-05T09:03:30;7.95;;;2.20;;
37201;SDS011;37799;52.390;6.136;2022-12-05T09:06:12;8.85;;;2.05;;
37201;SDS011;37799;52.390;6.136;2022-12-05T09:08:38;6.93;;;2.00;;
37201;SDS011;37799;52.390;6.136;2022-12-05T09:11:23;6.07;;;1.67;;
37201;SDS011;37799;52.390;6.136;2022-12-05T09:13:51;6.63;;;1.88;;
37201;SDS011;37799;52.390;6.136;2022-12-05T09:16:19;5.20;;;1.08;;
37201;SDS011;37799;52.390;6.136;2022-12-05T09:18:46;3.42;;;1.00;;
37201;SDS011;37799;52.390;6.136;2022-12-05T09:21:14;5.35;;;1.33;;
37201;SDS011;37799;52.390;6.136;2022-12-05T09:23:44;4.65;;;1.17;;
37201;SDS011;37799;52.390;6.136;2022-12-05T09:26:10;5.95;;;1.17;;
37201;SDS011;37799;52.390;6.136;2022-12-05T09:28:37;5.15;;;1.00;;
37201;SDS011;37799;52.390;6.136;2022-12-05T09:31:05;6.40;;;1.40;;
37201;SDS011;37799;52.390;6.136;2022-12-05T09:33:32;3.75;;;0.98;;
37201;SDS011;37799;52.390;6.136;2022-12-05T09:36:18;3.72;;;1.00;;
37201;SDS011;37799;52.390;6.136;2022-12-05T09:38:45;3.45;;;0.90;;
37201;SDS011;37799;52.390;6.136;2022-12-05T09:44:21;5.18;;;0.82;;
37201;SDS011;37799;52.390;6.136;2022-12-05T09:49:20;4.18;;;1.13;;
37201;SDS011;37799;52.390;6.136;2022-12-05T09:51:47;5.53;;;1.02;;
37201;SDS011;37799;52.390;6.136;2022-12-05T09:54:13;4.20;;;0.63;;
37201;SDS011;37799;52.390;6.136;2022-12-05T09:56:39;5.05;;;0.95;;
37201;SDS011;37799;52.390;6.136;2022-12-05T09:59:08;2.58;;;0.50;;
37201;SDS011;37799;52.390;6.136;2022-12-05T10:18:03;2.47;;;0.65;;
37201;SDS011;37799;52.390;6.136;2022-12-05T10:20:48;4.70;;;0.88;;
37201;SDS011;37799;52.390;6.136;2022-12-05T10:23:17;3.45;;;0.85;;
37201;SDS011;37799;52.390;6.136;2022-12-05T10:25:48;4.47;;;1.00;;
37201;SDS011;37799;52.390;6.136;2022-12-05T10:28:22;3.65;;;0.65;;
37201;SDS011;37799;52.390;6.136;2022-12-05T10:30:55;3.95;;;0.93;;
37201;SDS011;37799;52.390;6.136;2022-12-05T10:33:26;3.92;;;0.90;;
37201;SDS011;37799;52.390;6.136;2022-12-05T10:35:57;4.10;;;0.88;;
37201;SDS011;37799;52.390;6.136;2022-12-05T10:38:23;4.03;;;0.80;;
37201;SDS011;37799;52.390;6.136;2022-12-05T10:40:52;3.78;;;1.00;;
37201;SDS011;37799;52.390;6.136;2022-12-05T10:43:23;2.78;;;0.73;;
37201;SDS011;37799;52.390;6.136;2022-12-05T10:45:51;4.28;;;0.80;;
37201;SDS011;37799;52.390;6.136;2022-12-05T10:48:18;4.15;;;0.90;;
37201;SDS011;37799;52.390;6.136;2022-12-05T10:50:45;4.43;;;1.00;;
37201;SDS011;37799;52.390;6.136;2022-12-05T10:53:14;4.15;;;0.88;;
37201;SDS011;37799;52.390;6.136;2022-12-05T10:55:44;3.47;;;0.68;;
37201;SDS011;37799;52.390;6.136;2022-12-05T10:58:12;3.95;;;0.77;;
37201;SDS011;37799;52.390;6.136;2022-12-05T11:00:47;4.03;;;0.80;;
37201;SDS011;37799;52.390;6.136;2022-12-05T11:03:25;6.30;;;0.70;;
37201;SDS011;37799;52.390;6.136;2022-12-05T11:05:52;3.45;;;0.70;;
37201;SDS011;37799;52.390;6.136;2022-12-05T11:08:29;3.35;;;0.55;;
37201;SDS011;37799;52.390;6.136;2022-12-05T11:11:39;3.65;;;0.85;;
37201;SDS011;37799;52.390;6.136;2022-12-05T11:13:54;4.93;;;0.90;;
37201;SDS011;37799;52.390;6.136;2022-12-05T11:16:22;3.72;;;1.05;;
37201;SDS011;37799;52.390;6.136;2022-12-05T11:18:49;4.07;;;0.80;;
37201;SDS011;37799;52.390;6.136;2022-12-05T11:21:14;4.63;;;0.93;;
37201;SDS011;37799;52.390;6.136;2022-12-05T11:23:42;3.85;;;0.77;;
37201;SDS011;37799;52.390;6.136;2022-12-05T11:29:02;3.53;;;1.00;;
37201;SDS011;37799;52.390;6.136;2022-12-05T11:31:29;3.90;;;0.82;;
37201;SDS011;37799;52.390;6.136;2022-12-05T11:34:03;3.63;;;0.73;;
37201;SDS011;37799;52.390;6.136;2022-12-05T11:36:45;4.03;;;0.90;;
37201;SDS011;37799;52.390;6.136;2022-12-05T11:39:15;7.25;;;1.17;;
37201;SDS011;37799;52.390;6.136;2022-12-05T11:41:43;6.10;;;1.30;;
37201;SDS011;37799;52.390;6.136;2022-12-05T11:55:34;19.58;;;3.70;;
37201;SDS011;37799;52.390;6.136;2022-12-05T12:06:48;13.20;;;3.58;;
37201;SDS011;37799;52.390;6.136;2022-12-05T12:09:24;6.55;;;1.55;;
37201;SDS011;37799;52.390;6.136;2022-12-05T12:12:12;7.38;;;3.47;;
37201;SDS011;37799;52.390;6.136;2022-12-05T12:15:02;4.60;;;1.15;;
37201;SDS011;37799;52.390;6.136;2022-12-05T12:18:17;3.60;;;0.60;;
37201;SDS011;37799;52.390;6.136;2022-12-05T12:21:17;3.83;;;0.75;;
37201;SDS011;37799;52.390;6.136;2022-12-05T12:29:25;3.92;;;0.65;;
37201;SDS011;37799;52.390;6.136;2022-12-05T12:40:20;2.67;;;0.57;;
37201;SDS011;37799;52.390;6.136;2022-12-05T12:51:52;2.17;;;0.30;;
37201;SDS011;37799;52.390;6.136;2022-12-05T12:54:39;2.30;;;0.43;;
37201;SDS011;37799;52.390;6.136;2022-12-05T12:57:21;2.60;;;0.57;;
37201;SDS011;37799;52.390;6.136;2022-12-05T13:08:20;4.15;;;0.70;;
37201;SDS011;37799;52.390;6.136;2022-12-05T13:10:58;4.50;;;0.70;;
37201;SDS011;37799;52.390;6.136;2022-12-05T13:13:26;3.25;;;0.73;;
37201;SDS011;37799;52.390;6.136;2022-12-05T13:16:03;2.40;;;0.63;;
37201;SDS011;37799;52.390;6.136;2022-12-05T13:18:31;3.00;;;0.55;;
37201;SDS011;37799;52.390;6.136;2022-12-05T13:20:58;3.70;;;0.75;;
37201;SDS011;37799;52.390;6.136;2022-12-05T13:23:31;3.85;;;1.10;;
37201;SDS011;37799;52.390;6.136;2022-12-05T13:26:00;3.42;;;0.70;;
37201;SDS011;37799;52.390;6.136;2022-12-05T13:28:32;4.65;;;0.80;;
37201;SDS011;37799;52.390;6.136;2022-12-05T13:31:19;3.60;;;1.17;;
37201;SDS011;37799;52.390;6.136;2022-12-05T13:36:56;4.32;;;0.80;;
37201;SDS011;37799;52.390;6.136;2022-12-05T13:39:41;4.35;;;0.88;;
37201;SDS011;37799;52.390;6.136;2022-12-05T13:42:35;5.65;;;0.70;;
37201;SDS011;37799;52.390;6.136;2022-12-05T13:45:06;4.75;;;0.88;;
37201;SDS011;37799;52.390;6.136;2022-12-05T13:47:38;4.65;;;0.75;;
37201;SDS011;37799;52.390;6.136;2022-12-05T13:50:13;5.45;;;0.70;;
37201;SDS011;37799;52.390;6.136;2022-12-05T13:52:44;4.68;;;1.17;;
37201;SDS011;37799;52.390;6.136;2022-12-05T14:00:42;4.70;;;0.95;;
37201;SDS011;37799;52.390;6.136;2022-12-05T14:03:14;4.18;;;1.05;;
37201;SDS011;37799;52.390;6.136;2022-12-05T14:05:43;4.93;;;1.00;;
37201;SDS011;37799;52.390;6.136;2022-12-05T14:15:41;4.03;;;0.90;;
37201;SDS011;37799;52.390;6.136;2022-12-05T14:18:13;5.65;;;1.10;;
37201;SDS011;37799;52.390;6.136;2022-12-05T14:23:30;4.65;;;0.70;;
37201;SDS011;37799;52.390;6.136;2022-12-05T14:35:30;5.22;;;0.70;;
37201;SDS011;37799;52.390;6.136;2022-12-05T14:37:39;3.45;;;0.60;;
37201;SDS011;37799;52.390;6.136;2022-12-05T14:40:19;4.82;;;1.35;;
37201;SDS011;37799;52.390;6.136;2022-12-05T14:42:52;3.25;;;0.75;;
37201;SDS011;37799;52.390;6.136;2022-12-05T14:48:01;3.35;;;1.10;;
37201;SDS011;37799;52.390;6.136;2022-12-05T14:55:39;4.05;;;1.02;;
37201;SDS011;37799;52.390;6.136;2022-12-05T14:58:10;3.75;;;0.90;;
37201;SDS011;37799;52.390;6.136;2022-12-05T15:00:42;4.15;;;0.88;;
37201;SDS011;37799;52.390;6.136;2022-12-05T15:03:15;3.22;;;0.80;;
37201;SDS011;37799;52.390;6.136;2022-12-05T15:05:49;3.35;;;0.73;;
37201;SDS011;37799;52.390;6.136;2022-12-05T15:08:14;7.07;;;1.17;;
37201;SDS011;37799;52.390;6.136;2022-12-05T15:10:40;8.75;;;1.05;;
37201;SDS011;37799;52.390;6.136;2022-12-05T15:13:13;4.35;;;0.57;;
37201;SDS011;37799;52.390;6.136;2022-12-05T15:15:43;3.47;;;0.55;;
37201;SDS011;37799;52.390;6.136;2022-12-05T15:18:19;4.25;;;0.55;;
37201;SDS011;37799;52.390;6.136;2022-12-05T15:31:25;2.28;;;0.40;;
37201;SDS011;37799;52.390;6.136;2022-12-05T15:33:53;4.97;;;0.52;;
37201;SDS011;37799;52.390;6.136;2022-12-05T15:36:23;6.07;;;1.38;;
37201;SDS011;37799;52.390;6.136;2022-12-05T15:38:55;2.45;;;0.55;;
37201;SDS011;37799;52.390;6.136;2022-12-05T15:41:20;1.95;;;0.32;;
37201;SDS011;37799;52.390;6.136;2022-12-05T15:43:55;1.75;;;0.40;;
37201;SDS011;37799;52.390;6.136;2022-12-05T15:46:22;2.50;;;0.38;;
37201;SDS011;37799;52.390;6.136;2022-12-05T15:48:51;2.13;;;0.50;;
37201;SDS011;37799;52.390;6.136;2022-12-05T15:51:26;2.20;;;0.47;;
37201;SDS011;37799;52.390;6.136;2022-12-05T15:54:10;2.25;;;0.60;;
37201;SDS011;37799;52.390;6.136;2022-12-05T15:56:45;2.05;;;0.40;;
37201;SDS011;37799;52.390;6.136;2022-12-05T15:59:16;4.95;;;0.47;;
37201;SDS011;37799;52.390;6.136;2022-12-05T16:01:46;3.17;;;0.75;;
37201;SDS011;37799;52.390;6.136;2022-12-05T16:04:18;2.05;;;0.30;;
37201;SDS011;37799;52.390;6.136;2022-12-05T16:09:15;1.67;;;0.30;;
37201;SDS011;37799;52.390;6.136;2022-12-05T16:11:49;1.80;;;0.22;;
37201;SDS011;37799;52.390;6.136;2022-12-05T16:14:16;3.50;;;0.60;;
37201;SDS011;37799;52.390;6.136;2022-12-05T16:16:42;3.17;;;0.45;;
37201;SDS011;37799;52.390;6.136;2022-12-05T16:19:14;2.22;;;0.50;;
37201;SDS011;37799;52.390;6.136;2022-12-05T16:21:46;1.50;;;0.30;;
37201;SDS011;37799;52.390;6.136;2022-12-05T16:24:28;2.10;;;0.40;;
37201;SDS011;37799;52.390;6.136;2022-12-05T16:26:57;3.28;;;0.57;;
37201;SDS011;37799;52.390;6.136;2022-12-05T16:31:57;3.97;;;0.75;;
37201;SDS011;37799;52.390;6.136;2022-12-05T16:34:24;2.90;;;0.60;;
37201;SDS011;37799;52.390;6.136;2022-12-05T16:36:52;1.20;;;0.30;;
37201;SDS011;37799;52.390;6.136;2022-12-05T16:39:19;5.18;;;0.60;;
37201;SDS011;37799;52.390;6.136;2022-12-05T16:41:46;3.00;;;0.60;;
37201;SDS011;37799;52.390;6.136;2022-12-05T16:44:51;1.83;;;0.45;;
37201;SDS011;37799;52.390;6.136;2022-12-05T16:47:16;3.45;;;0.95;;
37201;SDS011;37799;52.390;6.136;2022-12-05T16:49:47;2.78;;;0.60;;
37201;SDS011;37799;52.390;6.136;2022-12-05T16:52:13;4.70;;;1.02;;
37201;SDS011;37799;52.390;6.136;2022-12-05T16:54:39;2.60;;;0.50;;
37201;SDS011;37799;52.390;6.136;2022-12-05T16:57:05;2.80;;;0.70;;
37201;SDS011;37799;52.390;6.136;2022-12-05T16:59:34;4.10;;;0.90;;
37201;SDS011;37799;52.390;6.136;2022-12-05T17:02:02;2.55;;;0.60;;
37201;SDS011;37799;52.390;6.136;2022-12-05T17:04:28;4.80;;;0.75;;
37201;SDS011;37799;52.390;6.136;2022-12-05T17:06:55;5.30;;;1.45;;
37201;SDS011;37799;52.390;6.136;2022-12-05T17:09:20;2.60;;;0.52;;
37201;SDS011;37799;52.390;6.136;2022-12-05T17:11:46;3.90;;;0.80;;
37201;SDS011;37799;52.390;6.136;2022-12-05T17:14:14;2.50;;;0.52;;
37201;SDS011;37799;52.390;6.136;2022-12-05T17:16:41;4.57;;;0.88;;
37201;SDS011;37799;52.390;6.136;2022-12-05T17:19:08;4.47;;;0.98;;
37201;SDS011;37799;52.390;6.136;2022-12-05T17:21:34;2.63;;;0.70;;
37201;SDS011;37799;52.390;6.136;2022-12-05T17:24:00;3.45;;;0.88;;
37201;SDS011;37799;52.390;6.136;2022-12-05T17:26:25;5.90;;;0.80;;
37201;SDS011;37799;52.390;6.136;2022-12-05T17:28:51;4.25;;;0.50;;
37201;SDS011;37799;52.390;6.136;2022-12-05T17:31:17;4.65;;;1.00;;
37201;SDS011;37799;52.390;6.136;2022-12-05T17:33:44;3.60;;;0.90;;
37201;SDS011;37799;52.390;6.136;2022-12-05T17:36:10;5.70;;;1.00;;